createdAt,value
2019-03-25T00:01:53.092Z,4.10
2019-03-25T00:04:23.397Z,4.10
2019-03-25T00:06:53.638Z,4.10
2019-03-25T00:09:23.878Z,4.10
2019-03-25T00:11:54.132Z,4.10
2019-03-25T00:14:24.390Z,4.10
2019-03-25T00:16:54.638Z,4.10
2019-03-25T00:19:25.453Z,4.10
2019-03-25T00:21:55.625Z,4.10
2019-03-25T00:24:25.934Z,4.10
2019-03-25T00:26:56.203Z,4.10
2019-03-25T00:29:26.481Z,4.00
2019-03-25T00:31:56.684Z,4.10
2019-03-25T00:34:26.990Z,4.00
2019-03-25T00:36:57.203Z,4.00
2019-03-25T00:39:27.465Z,4.00
2019-03-25T00:41:57.744Z,4.00
2019-03-25T00:44:28.016Z,4.00
2019-03-25T00:46:58.769Z,4.00
2019-03-25T00:49:29.106Z,4.00
2019-03-25T00:51:59.384Z,4.00
2019-03-25T00:54:29.611Z,4.00
2019-03-25T00:56:59.864Z,4.00
2019-03-25T00:59:30.147Z,4.00
2019-03-25T01:02:00.391Z,4.00
2019-03-25T01:04:30.683Z,4.00
2019-03-25T01:07:00.992Z,4.00
2019-03-25T01:09:31.236Z,4.00
2019-03-25T01:12:01.497Z,4.10
2019-03-25T01:14:31.806Z,4.10
2019-03-25T01:17:02.023Z,4.10
2019-03-25T01:19:32.244Z,4.10
2019-03-25T01:22:02.508Z,4.00
2019-03-25T01:24:32.773Z,4.00
2019-03-25T01:27:03.214Z,4.00
2019-03-25T01:29:33.453Z,4.00
2019-03-25T01:32:03.709Z,4.00
2019-03-25T01:34:33.974Z,4.00
2019-03-25T01:37:04.177Z,4.00
2019-03-25T01:39:34.460Z,4.00
2019-03-25T01:42:04.702Z,4.00
2019-03-25T01:44:34.953Z,4.00
2019-03-25T01:47:05.195Z,4.00
2019-03-25T01:49:35.446Z,4.00
2019-03-25T01:52:05.693Z,4.00
2019-03-25T01:54:35.962Z,4.00
2019-03-25T01:57:06.279Z,4.00
2019-03-25T01:59:36.517Z,4.00
2019-03-25T02:02:06.774Z,4.00
2019-03-25T02:04:37.072Z,4.00
2019-03-25T02:07:07.361Z,4.00
2019-03-25T02:09:41.897Z,3.90
2019-03-25T02:12:12.135Z,3.90
2019-03-25T02:14:42.403Z,3.90
2019-03-25T02:17:12.611Z,3.90
2019-03-25T02:19:42.883Z,3.90
2019-03-25T02:25:35.268Z,3.90
2019-03-25T02:28:05.547Z,3.80
2019-03-25T02:30:35.828Z,3.80
2019-03-25T02:33:06.023Z,3.70
2019-03-25T02:35:36.274Z,3.70
2019-03-25T02:38:06.530Z,3.70
2019-03-25T02:40:36.777Z,3.60
2019-03-25T02:43:07.157Z,3.60
2019-03-25T02:45:37.423Z,3.60
2019-03-25T02:48:07.682Z,3.60
2019-03-25T02:50:37.900Z,3.60
2019-03-25T02:53:52.165Z,3.60
2019-03-25T02:56:24.620Z,3.60
2019-03-25T02:58:54.829Z,3.60
2019-03-25T03:01:25.060Z,3.60
2019-03-25T03:03:55.304Z,3.60
2019-03-25T03:06:26.097Z,3.60
2019-03-25T03:08:56.874Z,3.50
2019-03-25T03:11:27.067Z,3.50
2019-03-25T03:13:57.278Z,3.50
2019-03-25T03:16:27.568Z,3.50
2019-03-25T03:18:57.800Z,3.50
2019-03-25T03:21:28.029Z,3.50
2019-03-25T03:23:58.402Z,3.50
2019-03-25T03:26:28.615Z,3.50
2019-03-25T03:28:58.833Z,3.60
2019-03-25T03:31:29.081Z,3.70
2019-03-25T03:33:59.323Z,3.80
2019-03-25T03:36:29.607Z,3.80
2019-03-25T03:38:59.829Z,3.90
2019-03-25T03:41:30.256Z,4.00
2019-03-25T03:44:00.930Z,4.00
2019-03-25T03:46:31.266Z,4.00
2019-03-25T03:49:01.545Z,4.00
2019-03-25T03:51:31.849Z,4.10
2019-03-25T03:54:02.090Z,4.10
2019-03-25T03:56:33.422Z,4.10
2019-03-25T03:59:05.161Z,4.10
2019-03-25T04:01:35.462Z,4.20
2019-03-25T04:04:05.705Z,4.20
2019-03-25T04:06:35.937Z,4.20
2019-03-25T04:09:07.072Z,4.30
2019-03-25T04:11:37.353Z,4.30
2019-03-25T04:14:07.603Z,4.30
2019-03-25T04:16:37.820Z,4.30
2019-03-25T04:19:08.096Z,4.30
2019-03-25T04:21:38.306Z,4.30
2019-03-25T04:24:08.547Z,4.30
2019-03-25T04:26:38.921Z,4.30
2019-03-25T04:29:09.184Z,4.30
2019-03-25T04:31:39.382Z,4.30
2019-03-25T04:34:09.649Z,4.30
2019-03-25T04:36:39.853Z,4.30
2019-03-25T04:39:10.080Z,4.30
2019-03-25T04:41:40.400Z,4.30
2019-03-25T04:44:10.712Z,4.30
2019-03-25T04:46:40.942Z,4.30
2019-03-25T04:49:11.177Z,4.40
2019-03-25T04:51:41.411Z,4.40
2019-03-25T04:54:11.740Z,4.40
2019-03-25T04:56:41.938Z,4.50
2019-03-25T04:59:12.190Z,4.50
2019-03-25T05:01:42.436Z,4.50
2019-03-25T05:04:12.747Z,4.60
2019-03-25T05:06:42.999Z,4.70
2019-03-25T05:09:16.225Z,4.80
2019-03-25T05:11:46.526Z,4.80
2019-03-25T05:14:16.750Z,4.90
2019-03-25T05:16:46.972Z,4.90
2019-03-25T05:19:17.177Z,4.90
2019-03-25T05:21:47.420Z,5.00
2019-03-25T05:24:17.708Z,5.10
2019-03-25T05:26:51.266Z,5.10
2019-03-25T05:29:19.827Z,5.20
2019-03-25T05:31:50.087Z,5.30
2019-03-25T05:34:20.298Z,5.30
2019-03-25T05:36:50.535Z,5.30
2019-03-25T05:39:20.782Z,5.40
2019-03-25T05:41:51.076Z,5.50
2019-03-25T05:44:21.356Z,5.50
2019-03-25T05:46:51.598Z,5.60
2019-03-25T05:49:21.885Z,5.70
2019-03-25T05:51:52.146Z,5.70
2019-03-25T05:54:22.416Z,5.80
2019-03-25T05:57:02.060Z,5.90
2019-03-25T05:59:24.565Z,5.90
2019-03-25T06:01:54.861Z,6.00
2019-03-25T06:04:25.208Z,6.10
2019-03-25T06:06:55.652Z,6.20
2019-03-25T06:09:28.399Z,6.30
2019-03-25T06:11:58.700Z,6.30
2019-03-25T06:14:28.937Z,6.40
2019-03-25T06:16:59.166Z,6.40
2019-03-25T06:19:29.438Z,6.40
2019-03-25T06:21:59.702Z,6.50
2019-03-25T06:24:30.723Z,6.60
2019-03-25T06:27:13.618Z,6.70
2019-03-25T06:29:36.340Z,6.80
2019-03-25T06:32:06.552Z,7.00
2019-03-25T06:34:37.672Z,7.20
2019-03-25T06:37:07.894Z,7.30
2019-03-25T06:39:38.323Z,7.50
2019-03-25T06:42:08.578Z,7.60
2019-03-25T06:44:41.051Z,7.70
2019-03-25T06:47:11.275Z,7.80
2019-03-25T06:49:45.746Z,7.90
2019-03-25T06:52:15.971Z,8.00
2019-03-25T06:54:46.189Z,8.20
2019-03-25T06:57:25.127Z,8.40
2019-03-25T06:59:53.166Z,8.50
2019-03-25T07:02:23.519Z,8.60
2019-03-25T07:04:57.050Z,8.90
2019-03-25T07:07:27.447Z,9.00
2019-03-25T07:10:00.031Z,9.00
2019-03-25T07:12:30.342Z,9.10
2019-03-25T07:15:09.028Z,9.20
2019-03-25T07:17:39.273Z,9.40
2019-03-25T07:20:10.284Z,9.40
2019-03-25T07:22:41.611Z,9.50
2019-03-25T07:25:12.323Z,9.40
2019-03-25T07:27:42.770Z,9.40
2019-03-25T07:30:13.048Z,9.30
2019-03-25T07:32:43.392Z,9.30
2019-03-25T07:35:16.741Z,9.20
2019-03-25T07:37:46.952Z,9.10
2019-03-25T07:40:18.138Z,9.00
2019-03-25T07:42:48.373Z,9.00
2019-03-25T07:45:18.657Z,9.10
2019-03-25T07:47:53.478Z,9.20
2019-03-25T07:50:26.731Z,9.30
2019-03-25T07:52:57.048Z,9.40
2019-03-25T07:55:27.306Z,9.30
2019-03-25T07:57:57.619Z,9.30
2019-03-25T08:00:27.897Z,9.40
2019-03-25T08:02:58.242Z,9.50
2019-03-25T08:05:28.570Z,9.70
2019-03-25T08:07:58.819Z,9.90
2019-03-25T08:10:37.092Z,10.00
2019-03-25T08:13:07.645Z,10.00
2019-03-25T08:15:38.022Z,9.80
2019-03-25T08:18:08.418Z,9.60
2019-03-25T08:20:38.696Z,9.70
2019-03-25T08:23:08.933Z,9.80
2019-03-25T08:25:39.200Z,9.90
2019-03-25T08:28:09.448Z,10.20
2019-03-25T08:30:39.717Z,10.40
2019-03-25T08:33:09.959Z,10.60
2019-03-25T08:35:40.180Z,10.80
2019-03-25T08:38:10.466Z,10.90
2019-03-25T08:40:41.015Z,11.00
2019-03-25T08:43:11.262Z,11.10
2019-03-25T08:45:41.531Z,11.40
2019-03-25T08:48:11.785Z,11.50
2019-03-25T08:50:42.057Z,11.60
2019-03-25T08:53:12.304Z,11.50
2019-03-25T08:55:43.041Z,11.50
2019-03-25T08:58:13.339Z,11.30
2019-03-25T09:00:43.605Z,11.20
2019-03-25T09:03:13.876Z,11.20
2019-03-25T09:05:44.225Z,11.20
2019-03-25T09:08:14.465Z,11.00
2019-03-25T09:10:45.197Z,10.80
2019-03-25T09:13:15.417Z,10.80
2019-03-25T09:15:45.635Z,10.70
2019-03-25T09:18:15.916Z,10.70
2019-03-25T09:20:46.139Z,10.80
2019-03-25T09:23:16.431Z,10.80
2019-03-25T09:25:46.679Z,10.90
2019-03-25T09:28:24.312Z,10.90
2019-03-25T09:31:20.985Z,10.90
2019-03-25T09:33:51.721Z,10.90
2019-03-25T09:36:23.258Z,11.10
2019-03-25T09:38:53.505Z,11.20
2019-03-25T09:41:24.323Z,11.10
2019-03-25T09:43:54.550Z,11.30
2019-03-25T09:46:24.791Z,11.40
2019-03-25T09:48:55.085Z,11.50
2019-03-25T09:51:25.439Z,11.60
2019-03-25T09:53:55.726Z,11.70
2019-03-25T09:56:25.998Z,11.70
2019-03-25T09:58:56.231Z,11.50
2019-03-25T10:01:26.516Z,11.40
2019-03-25T10:03:57.448Z,11.50
2019-03-25T10:06:27.752Z,11.50
2019-03-25T10:08:58.094Z,11.40
2019-03-25T10:11:28.372Z,11.50
2019-03-25T10:13:58.640Z,11.60
2019-03-25T10:16:28.983Z,11.50
2019-03-25T10:18:59.259Z,11.50
2019-03-25T10:21:29.589Z,11.60
2019-03-25T10:23:59.836Z,11.50
2019-03-25T10:26:30.713Z,11.50
2019-03-25T10:29:01.066Z,11.40
2019-03-25T10:31:31.311Z,11.20
2019-03-25T10:34:01.567Z,11.20
2019-03-25T10:36:31.849Z,11.30
2019-03-25T10:39:02.183Z,11.20
2019-03-25T10:41:33.047Z,11.10
2019-03-25T10:44:03.310Z,11.20
2019-03-25T10:46:33.545Z,11.30
2019-03-25T10:49:03.774Z,11.30
2019-03-25T10:51:34.167Z,11.40
2019-03-25T10:54:04.580Z,11.60
2019-03-25T10:56:35.199Z,11.80
2019-03-25T10:59:05.541Z,12.10
2019-03-25T11:01:35.761Z,12.20
2019-03-25T11:04:06.109Z,12.20
2019-03-25T11:06:36.398Z,12.20
2019-03-25T11:09:08.438Z,12.40
2019-03-25T11:11:38.634Z,12.40
2019-03-25T11:14:08.894Z,12.30
2019-03-25T11:16:39.247Z,12.40
2019-03-25T11:19:09.518Z,12.50
2019-03-25T11:21:39.778Z,12.50
2019-03-25T11:24:09.993Z,12.60
2019-03-25T11:26:40.250Z,12.60
2019-03-25T11:29:10.536Z,12.70
2019-03-25T11:31:40.832Z,12.60
2019-03-25T11:34:11.139Z,12.60
2019-03-25T11:36:41.535Z,12.80
2019-03-25T11:39:11.926Z,12.80
2019-03-25T11:41:42.192Z,12.80
2019-03-25T11:44:12.428Z,12.90
2019-03-25T11:46:42.766Z,13.00
2019-03-25T11:49:12.973Z,12.80
2019-03-25T11:51:43.174Z,12.50
2019-03-25T11:54:13.466Z,12.20
2019-03-25T11:56:43.701Z,11.90
2019-03-25T11:59:18.534Z,11.70
2019-03-25T12:01:45.960Z,11.70
2019-03-25T12:04:56.071Z,11.80
2019-03-25T12:07:44.414Z,12.10
2019-03-25T12:10:47.882Z,12.40
2019-03-25T12:13:34.855Z,12.70
2019-03-25T12:16:19.999Z,13.00
2019-03-25T12:19:05.759Z,13.10
2019-03-25T12:21:43.866Z,13.20
2019-03-25T12:24:23.840Z,13.10
2019-03-25T12:27:39.053Z,12.90
2019-03-25T12:30:16.968Z,12.60
2019-03-25T12:33:19.660Z,12.20
2019-03-25T12:36:19.329Z,12.20
2019-03-25T12:38:59.235Z,12.30
2019-03-25T12:41:24.960Z,12.40
2019-03-25T12:44:02.043Z,12.60
2019-03-25T12:46:44.830Z,12.50
2019-03-25T12:49:21.885Z,12.20
2019-03-25T12:51:51.194Z,12.00
2019-03-25T12:54:27.605Z,11.90
2019-03-25T12:57:16.595Z,11.90
2019-03-25T12:59:53.858Z,11.90
2019-03-25T13:02:27.445Z,12.00
2019-03-25T13:05:09.851Z,11.80
2019-03-25T13:07:40.860Z,11.70
2019-03-25T13:10:11.162Z,11.60
2019-03-25T13:12:41.405Z,11.40
2019-03-25T13:15:11.754Z,11.30
2019-03-25T13:17:42.003Z,11.30
2019-03-25T13:20:12.275Z,11.40
2019-03-25T13:22:42.506Z,11.40
2019-03-25T13:25:12.705Z,11.40
2019-03-25T13:27:43.067Z,11.40
2019-03-25T13:30:14.246Z,11.30
2019-03-25T13:32:44.463Z,11.20
2019-03-25T13:35:14.793Z,11.10
2019-03-25T13:37:45.013Z,11.00
2019-03-25T13:40:15.974Z,11.00
2019-03-25T13:42:46.241Z,11.00
2019-03-25T13:45:16.559Z,11.00
2019-03-25T13:47:46.877Z,10.90
2019-03-25T13:50:17.094Z,10.80
2019-03-25T13:52:47.298Z,10.80
2019-03-25T13:55:17.587Z,10.80
2019-03-25T13:57:47.792Z,10.70
2019-03-25T14:00:20.715Z,10.60
2019-03-25T14:02:51.051Z,10.50
2019-03-25T14:05:21.377Z,10.50
2019-03-25T14:07:51.737Z,10.60
2019-03-25T14:10:21.965Z,10.70
2019-03-25T14:12:52.169Z,10.90
2019-03-25T14:15:22.491Z,11.10
2019-03-25T14:17:52.731Z,11.30
2019-03-25T14:20:22.988Z,11.30
2019-03-25T14:22:57.611Z,11.20
2019-03-25T14:25:27.835Z,11.10
2019-03-25T14:27:59.283Z,10.90
2019-03-25T14:30:29.993Z,10.80
2019-03-25T14:33:00.274Z,10.70
2019-03-25T14:35:30.565Z,10.50
2019-03-25T14:38:00.783Z,10.50
2019-03-25T14:40:31.032Z,10.30
2019-03-25T14:43:07.254Z,10.10
2019-03-25T14:45:38.787Z,9.90
2019-03-25T14:48:09.103Z,9.60
2019-03-25T14:50:39.429Z,9.30
2019-03-25T14:53:09.770Z,9.00
2019-03-25T14:55:40.054Z,8.70
2019-03-25T14:58:10.282Z,8.50
2019-03-25T15:00:40.521Z,8.40
2019-03-25T15:03:10.779Z,8.20
2019-03-25T15:05:41.060Z,8.10
2019-03-25T15:08:11.370Z,8.00
2019-03-25T15:10:41.663Z,8.00
2019-03-25T15:13:25.656Z,8.00
2019-03-25T15:15:55.900Z,8.00
2019-03-25T15:18:26.159Z,8.00
2019-03-25T15:20:56.442Z,7.80
2019-03-25T15:23:26.700Z,7.60
2019-03-25T15:25:57.108Z,7.40
2019-03-25T15:28:27.454Z,7.10
2019-03-25T15:30:57.838Z,6.80
2019-03-25T15:33:28.452Z,6.70
2019-03-25T15:35:58.821Z,6.70
2019-03-25T15:38:31.476Z,6.70
2019-03-25T15:41:02.971Z,6.70
2019-03-25T15:43:33.224Z,6.70
2019-03-25T15:46:03.638Z,6.70
2019-03-25T15:48:33.875Z,6.70
2019-03-25T15:51:05.842Z,6.60
2019-03-25T15:53:36.125Z,6.60
2019-03-25T15:56:06.376Z,6.60
2019-03-25T15:58:36.640Z,6.60
2019-03-25T16:01:06.910Z,6.50
2019-03-25T16:03:37.116Z,6.50
2019-03-25T16:06:08.547Z,6.50
2019-03-25T16:08:38.791Z,6.40
2019-03-25T16:11:08.988Z,6.40
2019-03-25T16:13:39.258Z,6.40
2019-03-25T16:16:09.555Z,6.40
2019-03-25T16:18:43.673Z,6.40
2019-03-25T16:21:14.035Z,6.40
2019-03-25T16:23:44.937Z,6.40
2019-03-25T16:26:17.762Z,6.40
2019-03-25T16:28:48.237Z,6.40
2019-03-25T16:31:20.488Z,6.40
2019-03-25T16:33:50.738Z,6.30
2019-03-25T16:36:20.968Z,6.30
2019-03-25T16:38:51.247Z,6.30
2019-03-25T16:41:21.520Z,6.40
2019-03-25T16:43:51.785Z,6.40
2019-03-25T16:46:23.486Z,6.40
2019-03-25T16:48:55.204Z,6.30
2019-03-25T16:51:25.817Z,6.30
2019-03-25T16:53:57.184Z,6.20
2019-03-25T16:56:27.977Z,6.00
2019-03-25T16:58:58.233Z,6.00
2019-03-25T17:01:28.463Z,5.80
2019-03-25T17:03:58.681Z,5.70
2019-03-25T17:06:29.515Z,5.60
2019-03-25T17:08:59.789Z,5.50
2019-03-25T17:11:31.223Z,5.40
2019-03-25T17:14:01.582Z,5.30
2019-03-25T17:16:31.914Z,5.20
2019-03-25T17:19:02.272Z,5.10
2019-03-25T17:21:32.648Z,5.00
2019-03-25T17:24:02.902Z,5.00
2019-03-25T17:26:41.989Z,4.90
2019-03-25T17:29:05.144Z,4.70
2019-03-25T17:31:35.410Z,4.60
2019-03-25T17:34:05.715Z,4.60
2019-03-25T17:36:36.024Z,4.50
2019-03-25T17:39:09.415Z,4.50
2019-03-25T17:41:39.737Z,4.60
2019-03-25T17:44:09.984Z,4.80
2019-03-25T17:46:40.424Z,4.90
2019-03-25T17:49:10.691Z,5.10
2019-03-25T17:51:40.965Z,5.20
2019-03-25T17:54:11.268Z,5.30
2019-03-25T17:56:41.534Z,5.00
2019-03-25T17:59:12.700Z,4.70
2019-03-25T18:01:43.008Z,4.50
2019-03-25T18:04:13.258Z,4.40
2019-03-25T18:06:43.519Z,4.30
2019-03-25T18:09:15.075Z,4.20
2019-03-25T18:11:45.332Z,4.10
2019-03-25T18:14:15.606Z,4.00
2019-03-25T18:16:46.355Z,4.00
2019-03-25T18:19:16.614Z,3.80
2019-03-25T18:21:46.882Z,3.70
2019-03-25T18:24:17.143Z,3.50
2019-03-25T18:26:47.363Z,3.40
2019-03-25T18:29:17.655Z,3.20
2019-03-25T18:31:48.332Z,3.10
2019-03-25T18:34:18.574Z,3.00
2019-03-25T18:36:48.821Z,2.90
2019-03-25T18:39:19.109Z,2.80
2019-03-25T18:41:49.312Z,2.80
2019-03-25T18:44:20.110Z,2.80
2019-03-25T18:46:50.358Z,2.80
2019-03-25T18:49:20.611Z,2.70
2019-03-25T18:51:50.843Z,2.60
2019-03-25T18:54:21.103Z,2.50
2019-03-25T18:56:51.351Z,2.50
2019-03-25T18:59:21.575Z,2.50
2019-03-25T19:01:54.759Z,2.50
2019-03-25T19:04:27.220Z,2.40
2019-03-25T19:06:56.963Z,2.40
2019-03-25T19:09:29.821Z,2.40
2019-03-25T19:12:00.082Z,2.40
2019-03-25T19:14:30.390Z,2.40
2019-03-25T19:17:05.190Z,2.40
2019-03-25T19:19:34.652Z,2.40
2019-03-25T19:22:05.603Z,2.30
2019-03-25T19:24:36.156Z,2.30
2019-03-25T19:27:06.420Z,2.40
2019-03-25T19:29:36.713Z,2.40
2019-03-25T19:32:07.247Z,2.40
2019-03-25T19:34:37.924Z,2.30
2019-03-25T19:37:08.192Z,2.30
2019-03-25T19:39:38.394Z,2.30
2019-03-25T19:42:08.696Z,2.20
2019-03-25T19:44:38.895Z,2.30
2019-03-25T19:47:14.035Z,2.30
2019-03-25T19:49:44.402Z,2.20
2019-03-25T19:52:14.712Z,2.20
2019-03-25T19:54:44.936Z,2.20
2019-03-25T19:57:15.180Z,2.20
2019-03-25T19:59:45.938Z,2.20
2019-03-25T20:02:19.242Z,2.10
2019-03-25T20:04:48.264Z,2.10
2019-03-25T20:07:20.441Z,2.10
2019-03-25T20:09:50.745Z,2.10
2019-03-25T20:12:20.972Z,2.10
2019-03-25T20:14:51.282Z,2.00
2019-03-25T20:17:21.540Z,2.00
2019-03-25T20:19:51.751Z,2.00
2019-03-25T20:22:22.006Z,2.00
2019-03-25T20:24:52.390Z,2.00
2019-03-25T20:27:22.690Z,2.00
2019-03-25T20:29:52.876Z,2.00
2019-03-25T20:32:31.726Z,1.90
2019-03-25T20:34:56.440Z,1.90
2019-03-25T20:37:26.641Z,2.00
2019-03-25T20:39:57.261Z,2.00
2019-03-25T20:42:27.871Z,2.10
2019-03-25T20:44:58.171Z,2.20
2019-03-25T20:47:29.153Z,2.20
2019-03-25T20:49:59.412Z,2.30
2019-03-25T20:52:29.658Z,2.30
2019-03-25T20:55:00.023Z,2.30
2019-03-25T20:57:30.217Z,2.30
2019-03-25T21:00:00.539Z,2.10
2019-03-25T21:02:30.918Z,2.00
2019-03-25T21:05:01.255Z,1.90
2019-03-25T21:07:31.556Z,1.80
2019-03-25T21:10:01.845Z,1.80
2019-03-25T21:12:32.126Z,1.70
2019-03-25T21:15:02.379Z,1.70
2019-03-25T21:17:32.648Z,1.60
2019-03-25T21:20:03.052Z,1.60
2019-03-25T21:22:33.281Z,1.50
2019-03-25T21:25:03.610Z,1.50
2019-03-25T21:27:33.843Z,1.40
2019-03-25T21:30:04.160Z,1.50
2019-03-25T21:32:34.475Z,1.40
2019-03-25T21:35:06.642Z,1.40
2019-03-25T21:37:37.533Z,1.40
2019-03-25T21:40:08.076Z,1.40
2019-03-25T21:42:38.468Z,1.40
2019-03-25T21:45:09.896Z,1.40
2019-03-25T21:47:40.178Z,1.30
2019-03-25T21:50:12.950Z,1.20
2019-03-25T21:52:43.145Z,1.20
2019-03-25T21:55:13.367Z,1.10
2019-03-25T21:57:43.706Z,1.10
2019-03-25T22:00:15.427Z,1.10
2019-03-25T22:02:45.656Z,1.10
2019-03-25T22:05:15.883Z,1.20
2019-03-25T22:07:46.175Z,1.30
2019-03-25T22:10:17.059Z,1.40
2019-03-25T22:12:47.351Z,1.50
2019-03-25T22:15:17.619Z,1.60
2019-03-25T22:17:47.849Z,1.60
2019-03-25T22:20:18.147Z,1.80
2019-03-25T22:22:49.908Z,1.80
2019-03-25T22:25:20.190Z,1.90
2019-03-25T22:27:50.596Z,2.00
2019-03-25T22:30:25.773Z,1.90
2019-03-25T22:32:55.111Z,1.90
2019-03-25T22:35:25.366Z,2.10
2019-03-25T22:37:55.783Z,2.10
2019-03-25T22:40:27.321Z,2.10
2019-03-25T22:42:57.505Z,2.00
2019-03-25T22:45:32.053Z,2.00
2019-03-25T22:48:02.302Z,1.90
2019-03-25T22:50:33.583Z,1.70
2019-03-25T22:53:03.842Z,1.60
2019-03-25T22:55:34.084Z,1.60
2019-03-25T22:58:04.322Z,1.50
2019-03-25T23:00:44.957Z,1.50
2019-03-25T23:03:19.911Z,1.40
2019-03-25T23:05:50.327Z,1.40
2019-03-25T23:08:20.560Z,1.30
2019-03-25T23:10:51.441Z,1.30
2019-03-25T23:13:21.678Z,1.20
2019-03-25T23:15:51.901Z,1.20
2019-03-25T23:18:22.150Z,1.10
2019-03-25T23:20:52.398Z,1.10
2019-03-25T23:23:22.690Z,1.10
2019-03-25T23:25:52.944Z,1.10
2019-03-25T23:28:23.211Z,1.10
2019-03-25T23:30:53.505Z,1.10
2019-03-25T23:33:23.719Z,1.20
2019-03-25T23:35:54.511Z,1.10
2019-03-25T23:38:24.797Z,1.10
2019-03-25T23:40:55.027Z,1.00
2019-03-25T23:43:25.297Z,1.00
2019-03-25T23:45:55.608Z,1.10
2019-03-25T23:48:25.842Z,1.10
2019-03-25T23:50:56.095Z,1.20
2019-03-25T23:53:26.316Z,1.30
2019-03-25T23:55:56.573Z,1.40
2019-03-25T23:58:26.827Z,1.50
